aviador You're here:

KMKG Decoded Metar

MUSKEGON in MI, USA
Report Time2017-05-24 16:55:00
UTC Time2017-05-24 17:53:59
Flight Rules vfr VFR
Wind050° at 12 kt
W.Decomp.*RWY 06: 11.9 kt HW 1.3 kt LCW
RWY 14: 0.8 kt HW 12 kt LCW
W.Rank050° ranks 34
Current wind is above 050° avg. (6.5)
Visibility9999 m
Phenomena:N/A
Clouds:Overcast 095 Hf
Expected CloudBase > 2,800 ft AGL from Temp-Dew spread
Ceiling9,500 ft
Temp19°C (ISA +5)
Dew Point12°C (64% RH)
AAT15.3°C
QNH1002 hPa
Density Alt1,804 ft
Elevation627 ft
Report Wrong Elevation
Raw Report
METAR KMKG 241655Z 05012KT 10SM OVC095 19/12 A2958 RMK AO2 SLP014 T01940117=

Extra information for KMKG:More info

Metar Taf Metar & Taf Last 4 Metars F.Rules Stats Wind Profile Meteogram Temp Stats Airport Information Weather charts Add Link Nearby VenuesMetar ALERT Operation Metar Decoded Social comments

AIRNAV info for KMKG